createdAt,value
2022-12-03T00:01:13.794Z,101747.53
2022-12-03T00:03:40.416Z,101746.44
2022-12-03T00:06:07.119Z,101744.03
2022-12-03T00:08:33.629Z,101739.00
2022-12-03T00:11:00.184Z,101747.81
2022-12-03T00:13:26.659Z,101744.34
2022-12-03T00:15:53.234Z,101747.34
2022-12-03T00:18:19.741Z,101747.16
2022-12-03T00:20:46.186Z,101740.44
2022-12-03T00:23:12.676Z,101742.69
2022-12-03T00:25:39.181Z,101740.47
2022-12-03T00:28:05.652Z,101738.03
2022-12-03T00:30:32.216Z,101735.91
2022-12-03T00:32:58.691Z,101744.41
2022-12-03T00:35:25.175Z,101746.25
2022-12-03T00:37:51.672Z,101730.31
2022-12-03T00:40:18.158Z,101730.69
2022-12-03T00:42:44.705Z,101730.13
2022-12-03T00:45:11.405Z,101727.53
2022-12-03T00:47:37.904Z,101731.44
2022-12-03T00:50:05.607Z,101731.16
2022-12-03T00:52:32.201Z,101728.28
2022-12-03T00:54:58.676Z,101720.38
2022-12-03T00:57:25.162Z,101732.13
2022-12-03T00:59:51.602Z,101738.47
2022-12-03T01:02:18.190Z,101727.41
2022-12-03T01:04:44.743Z,101731.09
2022-12-03T01:07:11.307Z,101728.69
2022-12-03T01:09:38.741Z,101732.78
2022-12-03T01:12:05.435Z,101740.41
2022-12-03T01:14:31.896Z,101739.25
2022-12-03T01:16:58.354Z,101737.31
2022-12-03T01:19:25.465Z,101744.09
2022-12-03T01:21:52.148Z,101747.50
2022-12-03T01:24:19.392Z,101737.94
2022-12-03T01:26:46.017Z,101736.91
2022-12-03T01:29:12.575Z,101744.31
2022-12-03T01:31:57.917Z,101735.91
2022-12-03T01:34:24.435Z,101744.94
2022-12-03T01:36:52.401Z,101742.31
2022-12-03T01:39:19.629Z,101750.78
2022-12-03T01:41:48.383Z,101743.41
2022-12-03T01:44:22.904Z,101732.75
2022-12-03T01:46:51.477Z,101738.53
2022-12-03T01:49:25.095Z,101747.50
2022-12-03T01:51:52.836Z,101742.97
2022-12-03T01:54:25.086Z,101739.47
2022-12-03T01:56:52.771Z,101742.44
2022-12-03T01:59:21.543Z,101736.91
2022-12-03T02:01:48.171Z,101743.03
2022-12-03T02:04:17.154Z,101732.44
2022-12-03T02:06:44.510Z,101732.31
2022-12-03T02:09:12.688Z,101733.91
2022-12-03T02:11:43.449Z,101728.88
2022-12-03T02:14:18.179Z,101733.19
2022-12-03T02:16:45.191Z,101733.97
2022-12-03T02:19:31.874Z,101736.41
2022-12-03T02:22:01.246Z,101721.44
2022-12-03T02:24:42.497Z,101726.19
2022-12-03T02:27:09.197Z,101720.03
2022-12-03T02:29:36.135Z,101719.00
2022-12-03T02:32:02.709Z,101720.28
2022-12-03T02:34:41.370Z,101716.72
2022-12-03T02:37:11.737Z,101722.00
2022-12-03T02:39:42.616Z,101713.63
2022-12-03T02:42:28.800Z,101705.53
2022-12-03T02:45:00.644Z,101703.72
2022-12-03T02:47:31.518Z,101707.22
2022-12-03T02:49:58.859Z,101703.50
2022-12-03T02:52:25.895Z,101705.25
2022-12-03T02:54:52.949Z,101697.03
2022-12-03T02:57:20.067Z,101695.78
2022-12-03T02:59:46.685Z,101709.09
2022-12-03T03:02:14.497Z,101685.38
2022-12-03T03:04:43.454Z,101691.09
2022-12-03T03:07:10.582Z,101688.19
2022-12-03T03:09:37.338Z,101689.59
2022-12-03T03:12:04.020Z,101698.13
2022-12-03T03:14:32.509Z,101699.00
2022-12-03T03:16:59.378Z,101699.84
2022-12-03T03:19:26.602Z,101693.13
2022-12-03T03:21:53.724Z,101689.09
2022-12-03T03:24:22.020Z,101695.13
2022-12-03T03:26:49.555Z,101685.06
2022-12-03T03:29:16.291Z,101688.63
2022-12-03T03:31:45.842Z,101688.56
2022-12-03T03:34:13.351Z,101697.25
2022-12-03T03:36:40.528Z,101688.72
2022-12-03T03:39:07.263Z,101691.81
2022-12-03T03:41:34.794Z,101687.94
2022-12-03T03:44:01.689Z,101688.28
2022-12-03T03:46:28.954Z,101695.81
2022-12-03T03:48:55.722Z,101698.56
2022-12-03T03:51:22.330Z,101683.91
2022-12-03T03:53:50.343Z,101693.56
2022-12-03T03:56:18.890Z,101686.22
2022-12-03T03:58:45.390Z,101688.25
2022-12-03T04:01:13.980Z,101688.44
2022-12-03T04:03:41.030Z,101684.41
2022-12-03T04:06:08.232Z,101690.28
2022-12-03T04:08:34.704Z,101677.63
2022-12-03T04:11:19.738Z,101679.41
2022-12-03T04:13:46.215Z,101688.63
2022-12-03T04:16:12.782Z,101681.75
2022-12-03T04:18:44.999Z,101690.41
2022-12-03T04:21:39.270Z,101685.50
2022-12-03T04:24:07.131Z,101680.81
2022-12-03T04:26:53.178Z,101669.53
2022-12-03T04:29:20.611Z,101675.34
2022-12-03T04:32:05.529Z,101675.63
2022-12-03T04:34:51.125Z,101679.66
2022-12-03T04:37:18.164Z,101679.97
2022-12-03T04:39:44.628Z,101671.28
2022-12-03T04:42:11.293Z,101670.91
2022-12-03T04:44:37.932Z,101664.31
2022-12-03T04:47:07.133Z,101666.38
2022-12-03T04:49:35.174Z,101662.16
2022-12-03T04:52:01.819Z,101663.97
2022-12-03T04:54:29.136Z,101665.97
2022-12-03T04:56:56.095Z,101663.41
2022-12-03T04:59:22.922Z,101662.69
2022-12-03T05:01:49.572Z,101660.34
2022-12-03T05:04:16.647Z,101659.69
2022-12-03T05:06:43.587Z,101658.25
2022-12-03T05:09:10.688Z,101661.63
2022-12-03T05:11:37.238Z,101657.19
2022-12-03T05:14:04.044Z,101656.84
2022-12-03T05:16:30.826Z,101658.38
2022-12-03T05:18:57.403Z,101659.84
2022-12-03T05:21:24.187Z,101654.50
2022-12-03T05:23:50.872Z,101653.22
2022-12-03T05:26:17.375Z,101656.72
2022-12-03T05:28:44.254Z,101660.53
2022-12-03T05:31:10.872Z,101655.31
2022-12-03T05:33:43.782Z,101663.66
2022-12-03T05:36:10.857Z,101661.00
2022-12-03T05:38:37.423Z,101662.53
2022-12-03T05:41:24.031Z,101656.81
2022-12-03T05:43:51.073Z,101651.41
2022-12-03T05:46:17.593Z,101655.81
2022-12-03T05:48:44.221Z,101651.72
2022-12-03T05:51:10.715Z,101646.75
2022-12-03T05:53:37.174Z,101654.66
2022-12-03T05:56:03.801Z,101650.88
2022-12-03T05:58:30.241Z,101653.50
2022-12-03T06:00:56.705Z,101649.91
2022-12-03T06:03:23.470Z,101651.56
2022-12-03T06:05:50.026Z,101661.22
2022-12-03T06:08:16.515Z,101660.13
2022-12-03T06:10:43.011Z,101654.88
2022-12-03T06:13:09.466Z,101653.44
2022-12-03T06:15:41.973Z,101648.31
2022-12-03T06:18:10.123Z,101652.84
2022-12-03T06:20:36.614Z,101654.06
2022-12-03T06:23:03.106Z,101657.56
2022-12-03T06:25:29.567Z,101650.47
2022-12-03T06:27:56.044Z,101654.75
2022-12-03T06:30:22.495Z,101651.38
2022-12-03T06:32:48.967Z,101648.53
2022-12-03T06:35:15.545Z,101640.34
2022-12-03T06:37:41.983Z,101648.72
2022-12-03T06:40:08.974Z,101641.75
2022-12-03T06:42:35.430Z,101644.31
2022-12-03T06:45:01.891Z,101641.00
2022-12-03T06:47:29.616Z,101650.00
2022-12-03T06:49:56.181Z,101648.25
2022-12-03T06:52:22.655Z,101650.72
2022-12-03T06:54:49.126Z,101646.53
2022-12-03T06:57:16.208Z,101638.03
2022-12-03T06:59:42.636Z,101644.78
2022-12-03T07:02:09.861Z,101646.06
2022-12-03T07:04:36.568Z,101642.63
2022-12-03T07:07:03.164Z,101651.28
2022-12-03T07:09:29.959Z,101644.75
2022-12-03T07:11:57.124Z,101635.94
2022-12-03T07:14:23.766Z,101654.47
2022-12-03T07:16:50.222Z,101640.72
2022-12-03T07:19:16.977Z,101650.72
2022-12-03T07:21:43.478Z,101651.75
2022-12-03T07:24:10.161Z,101649.03
2022-12-03T07:26:36.842Z,101643.00
2022-12-03T07:29:03.570Z,101647.16
2022-12-03T07:31:30.246Z,101644.06
2022-12-03T07:33:56.817Z,101648.94
2022-12-03T07:36:23.315Z,101643.19
2022-12-03T07:38:49.861Z,101650.25
2022-12-03T07:41:16.366Z,101648.72
2022-12-03T07:43:43.631Z,101646.19
2022-12-03T07:46:10.159Z,101647.91
2022-12-03T07:48:36.653Z,101641.69
2022-12-03T07:51:03.275Z,101654.53
2022-12-03T07:53:29.792Z,101651.22
2022-12-03T07:55:56.276Z,101657.94
2022-12-03T07:58:22.829Z,101651.75
2022-12-03T08:00:49.397Z,101652.94
2022-12-03T08:03:15.952Z,101651.75
2022-12-03T08:05:42.435Z,101645.97
2022-12-03T08:08:09.044Z,101647.53
2022-12-03T08:10:35.603Z,101646.06
2022-12-03T08:13:05.007Z,101644.47
2022-12-03T08:15:37.219Z,101644.63
2022-12-03T08:18:18.701Z,101646.50
2022-12-03T08:20:48.063Z,101646.97
2022-12-03T08:23:20.384Z,101646.69
2022-12-03T08:25:47.909Z,101649.44
2022-12-03T08:28:27.799Z,101639.44
2022-12-03T08:31:12.005Z,101639.69
2022-12-03T08:33:40.137Z,101647.81
2022-12-03T08:36:18.647Z,101651.94
2022-12-03T08:38:50.059Z,101646.34
2022-12-03T08:41:37.717Z,101651.63
2022-12-03T08:44:26.028Z,101653.28
2022-12-03T08:47:16.347Z,101658.84
2022-12-03T08:49:47.778Z,101651.28
2022-12-03T08:52:20.407Z,101656.94
2022-12-03T08:54:56.191Z,101650.47
2022-12-03T08:57:34.615Z,101660.72
2022-12-03T09:00:18.183Z,101665.88
2022-12-03T09:02:47.714Z,101667.06
2022-12-03T09:05:26.120Z,101659.75
2022-12-03T09:07:52.629Z,101653.03
2022-12-03T09:10:19.254Z,101652.16
2022-12-03T09:12:45.737Z,101653.09
2022-12-03T09:15:12.365Z,101651.38
2022-12-03T09:17:38.954Z,101650.19
2022-12-03T09:20:06.881Z,101653.69
2022-12-03T09:22:33.420Z,101654.53
2022-12-03T09:24:59.951Z,101648.41
2022-12-03T09:27:26.494Z,101655.78
2022-12-03T09:29:52.968Z,101655.50
2022-12-03T09:32:19.608Z,101657.00
2022-12-03T09:34:47.373Z,101653.69
2022-12-03T09:37:13.960Z,101652.22
2022-12-03T09:39:40.512Z,101664.44
2022-12-03T09:42:07.433Z,101658.94
2022-12-03T09:44:35.608Z,101659.03
2022-12-03T09:47:03.027Z,101644.41
2022-12-03T09:49:32.632Z,101654.22
2022-12-03T09:52:01.750Z,101640.75
2022-12-03T09:54:30.177Z,101638.25
2022-12-03T09:57:00.742Z,101634.50
2022-12-03T09:59:31.545Z,101636.00
2022-12-03T10:01:58.534Z,101636.25
2022-12-03T10:04:25.147Z,101641.72
2022-12-03T10:06:51.688Z,101636.38
2022-12-03T10:09:24.409Z,101640.97
2022-12-03T10:11:51.077Z,101629.59
2022-12-03T10:14:19.780Z,101632.09
2022-12-03T10:16:46.646Z,101634.03
2022-12-03T10:19:21.854Z,101624.91
2022-12-03T10:21:48.463Z,101615.69
2022-12-03T10:24:17.730Z,101616.38
2022-12-03T10:26:46.095Z,101617.00
2022-12-03T10:29:13.068Z,101618.75
2022-12-03T10:31:39.622Z,101612.91
2022-12-03T10:34:06.121Z,101603.47
2022-12-03T10:36:33.157Z,101605.97
2022-12-03T10:39:17.615Z,101595.41
2022-12-03T10:41:44.765Z,101597.91
2022-12-03T10:44:19.187Z,101588.44
2022-12-03T10:47:03.901Z,101587.56
2022-12-03T10:49:30.431Z,101580.75
2022-12-03T10:51:57.158Z,101579.63
2022-12-03T10:54:26.033Z,101570.97
2022-12-03T10:56:53.079Z,101581.44
2022-12-03T10:59:25.726Z,101569.19
2022-12-03T11:01:52.529Z,101574.34
2022-12-03T11:04:22.798Z,101570.19
2022-12-03T11:06:50.377Z,101566.56
2022-12-03T11:09:23.140Z,101555.44
2022-12-03T11:11:49.895Z,101557.03
2022-12-03T11:15:05.124Z,101554.63
2022-12-03T11:17:43.576Z,101551.75
2022-12-03T11:20:33.245Z,101558.34
2022-12-03T11:22:59.991Z,101558.03
2022-12-03T11:25:29.410Z,101552.66
2022-12-03T11:28:14.497Z,101552.50
2022-12-03T11:30:50.554Z,101546.47
2022-12-03T11:33:21.689Z,101542.91
2022-12-03T11:36:02.732Z,101545.53
2022-12-03T11:38:38.370Z,101540.38
2022-12-03T11:41:32.786Z,101530.94
2022-12-03T11:44:19.663Z,101529.13
2022-12-03T11:46:47.217Z,101522.31
2022-12-03T11:49:23.267Z,101525.03
2022-12-03T11:51:50.332Z,101520.66
2022-12-03T11:54:18.825Z,101516.44
2022-12-03T11:56:48.870Z,101513.22
2022-12-03T11:59:17.165Z,101505.34
2022-12-03T12:01:44.581Z,101504.81
2022-12-03T12:04:32.531Z,101515.19
2022-12-03T12:06:59.506Z,101509.91
2022-12-03T12:09:52.471Z,101507.06
2022-12-03T12:12:51.135Z,101505.25
2022-12-03T12:15:53.604Z,101503.69
2022-12-03T12:18:41.064Z,101499.53
2022-12-03T12:21:47.640Z,101492.06
2022-12-03T12:24:33.225Z,101485.75
2022-12-03T12:27:12.001Z,101485.38
2022-12-03T12:29:40.298Z,101483.75
2022-12-03T12:32:12.802Z,101478.31
2022-12-03T12:34:41.897Z,101473.16
2022-12-03T12:37:23.377Z,101477.44
2022-12-03T12:39:54.993Z,101467.13
2022-12-03T12:42:27.982Z,101467.56
2022-12-03T12:44:56.451Z,101463.03
2022-12-03T12:47:23.102Z,101465.28
2022-12-03T12:49:51.843Z,101459.44
2022-12-03T12:52:18.619Z,101463.56
2022-12-03T12:54:45.178Z,101456.72
2022-12-03T12:57:20.534Z,101456.56
2022-12-03T12:59:47.228Z,101462.88
2022-12-03T13:02:26.363Z,101448.31
2022-12-03T13:04:53.209Z,101458.53
2022-12-03T13:07:19.727Z,101455.41
2022-12-03T13:09:46.222Z,101447.03
2022-12-03T13:12:21.457Z,101456.63
2022-12-03T13:14:47.970Z,101447.13
2022-12-03T13:17:19.171Z,101446.69
2022-12-03T13:19:49.391Z,101442.09
2022-12-03T13:22:21.290Z,101445.31
2022-12-03T13:24:52.632Z,101444.38
2022-12-03T13:27:25.810Z,101443.97
2022-12-03T13:30:06.848Z,101439.78
2022-12-03T13:32:33.932Z,101440.78
2022-12-03T13:35:09.806Z,101432.78
2022-12-03T13:37:37.317Z,101436.44
2022-12-03T13:40:36.241Z,101438.25
2022-12-03T13:43:18.459Z,101434.06
2022-12-03T13:45:45.218Z,101431.03
2022-12-03T13:48:31.843Z,101433.88
2022-12-03T13:51:12.773Z,101425.28
2022-12-03T13:53:40.315Z,101428.81
2022-12-03T13:56:27.608Z,101420.84
2022-12-03T13:58:55.346Z,101419.88
2022-12-03T14:01:22.056Z,101417.66
2022-12-03T14:03:49.739Z,101417.97
2022-12-03T14:06:16.894Z,101409.63
2022-12-03T14:08:43.391Z,101410.75
2022-12-03T14:11:29.932Z,101416.41
2022-12-03T14:13:56.419Z,101413.63
2022-12-03T14:16:23.406Z,101407.84
2022-12-03T14:18:49.992Z,101411.88
2022-12-03T14:21:16.438Z,101416.88
2022-12-03T14:23:42.915Z,101410.19
2022-12-03T14:26:09.889Z,101419.19
2022-12-03T14:28:36.380Z,101415.19
2022-12-03T14:31:02.834Z,101404.06
2022-12-03T14:33:29.309Z,101413.38
2022-12-03T14:35:56.248Z,101411.03
2022-12-03T14:38:22.793Z,101412.44
2022-12-03T14:40:49.289Z,101417.94
2022-12-03T14:43:15.831Z,101406.88
2022-12-03T14:45:42.402Z,101414.88
2022-12-03T14:48:08.922Z,101418.03
2022-12-03T14:50:35.393Z,101411.34
2022-12-03T14:53:01.943Z,101413.50
2022-12-03T14:55:28.447Z,101416.59
2022-12-03T14:57:54.885Z,101409.59
2022-12-03T15:00:21.722Z,101415.22
2022-12-03T15:02:48.255Z,101407.72
2022-12-03T15:05:14.775Z,101411.00
2022-12-03T15:07:41.383Z,101408.44
2022-12-03T15:10:08.317Z,101412.59
2022-12-03T15:12:34.830Z,101414.22
2022-12-03T15:15:01.334Z,101409.72
2022-12-03T15:17:31.994Z,101407.50
2022-12-03T15:19:58.845Z,101410.94
2022-12-03T15:22:25.340Z,101411.47
2022-12-03T15:24:51.797Z,101409.97
2022-12-03T15:27:18.303Z,101413.91
2022-12-03T15:29:44.757Z,101409.88
2022-12-03T15:32:11.229Z,101412.38
2022-12-03T15:34:37.738Z,101413.94
2022-12-03T15:37:04.253Z,101408.63
2022-12-03T15:39:30.841Z,101413.03
2022-12-03T15:41:57.341Z,101408.38
2022-12-03T15:44:23.910Z,101407.84
2022-12-03T15:46:50.397Z,101417.06
2022-12-03T15:49:16.945Z,101413.06
2022-12-03T15:51:43.449Z,101415.91
2022-12-03T15:54:12.058Z,101410.44
2022-12-03T15:56:38.645Z,101407.38
2022-12-03T15:59:05.165Z,101407.97
2022-12-03T16:01:31.736Z,101406.13
2022-12-03T16:03:58.304Z,101410.53
2022-12-03T16:06:24.920Z,101407.38
2022-12-03T16:08:51.382Z,101409.84
2022-12-03T16:11:17.864Z,101401.72
2022-12-03T16:13:44.598Z,101411.88
2022-12-03T16:16:11.152Z,101411.81
2022-12-03T16:18:37.785Z,101408.19
2022-12-03T16:21:04.358Z,101404.97
2022-12-03T16:23:30.862Z,101400.84
2022-12-03T16:25:57.327Z,101405.09
2022-12-03T16:28:23.894Z,101406.53
2022-12-03T16:30:50.477Z,101407.88
2022-12-03T16:33:20.095Z,101404.50
2022-12-03T16:35:48.952Z,101397.59
2022-12-03T16:38:15.414Z,101396.03
2022-12-03T16:40:41.914Z,101396.22
2022-12-03T16:43:10.534Z,101399.75
2022-12-03T16:45:55.868Z,101398.63
2022-12-03T16:48:22.975Z,101391.38
2022-12-03T16:50:49.483Z,101393.53
2022-12-03T16:53:16.059Z,101395.69
2022-12-03T16:55:42.548Z,101395.13
2022-12-03T16:58:09.136Z,101399.19
2022-12-03T17:00:35.574Z,101392.06
2022-12-03T17:03:02.241Z,101389.72
2022-12-03T17:05:28.851Z,101383.81
2022-12-03T17:07:55.471Z,101393.31
2022-12-03T17:10:21.974Z,101387.97
2022-12-03T17:13:08.671Z,101391.84
2022-12-03T17:15:35.071Z,101391.22
2022-12-03T17:18:03.539Z,101398.16
2022-12-03T17:20:31.112Z,101392.06
2022-12-03T17:22:58.673Z,101390.13
2022-12-03T17:25:25.825Z,101390.00
2022-12-03T17:27:53.006Z,101390.00
2022-12-03T17:30:19.969Z,101387.28
2022-12-03T17:32:46.786Z,101388.84
2022-12-03T17:35:13.502Z,101389.38
2022-12-03T17:37:40.171Z,101382.38
2022-12-03T17:40:09.613Z,101383.19
2022-12-03T17:42:36.168Z,101377.44
2022-12-03T17:45:03.164Z,101390.63
2022-12-03T17:47:29.831Z,101394.13
2022-12-03T17:49:56.616Z,101379.75
2022-12-03T17:52:23.320Z,101381.22
2022-12-03T17:55:09.689Z,101379.97
2022-12-03T17:57:36.296Z,101372.09
2022-12-03T18:00:03.214Z,101378.22
2022-12-03T18:02:38.624Z,101370.63
2022-12-03T18:05:05.433Z,101368.84
2022-12-03T18:07:32.047Z,101369.78
2022-12-03T18:09:58.698Z,101370.06
2022-12-03T18:12:25.456Z,101367.38
2022-12-03T18:14:52.016Z,101366.03
2022-12-03T18:17:18.476Z,101363.19
2022-12-03T18:19:44.979Z,101369.03
2022-12-03T18:22:12.594Z,101362.75
2022-12-03T18:24:39.178Z,101362.53
2022-12-03T18:27:05.946Z,101360.44
2022-12-03T18:29:32.446Z,101362.16
2022-12-03T18:31:59.154Z,101357.56
2022-12-03T18:34:25.690Z,101349.34
2022-12-03T18:36:52.371Z,101357.78
2022-12-03T18:39:26.318Z,101351.06
2022-12-03T18:41:53.930Z,101355.56
2022-12-03T18:44:20.902Z,101347.50
2022-12-03T18:46:55.046Z,101348.38
2022-12-03T18:49:22.238Z,101344.72
2022-12-03T18:51:50.403Z,101344.81
2022-12-03T18:54:18.701Z,101338.28
2022-12-03T18:56:45.201Z,101338.28
2022-12-03T18:59:12.167Z,101344.25
2022-12-03T19:01:38.680Z,101347.19
2022-12-03T19:04:05.197Z,101352.53
2022-12-03T19:06:32.058Z,101340.34
2022-12-03T19:08:58.606Z,101340.38
2022-12-03T19:11:25.190Z,101338.34
2022-12-03T19:13:52.067Z,101341.00
2022-12-03T19:16:18.817Z,101341.78
2022-12-03T19:18:45.475Z,101340.03
2022-12-03T19:21:14.832Z,101337.22
2022-12-03T19:23:47.257Z,101341.91
2022-12-03T19:26:25.664Z,101341.91
2022-12-03T19:28:53.768Z,101338.81
2022-12-03T19:31:20.530Z,101346.03
2022-12-03T19:33:47.418Z,101343.66
2022-12-03T19:36:28.470Z,101343.97
2022-12-03T19:38:57.605Z,101346.34
2022-12-03T19:41:27.233Z,101341.94
2022-12-03T19:43:55.835Z,101350.63
2022-12-03T19:46:24.620Z,101349.53
2022-12-03T19:48:51.633Z,101340.63
2022-12-03T19:51:34.182Z,101358.13
2022-12-03T19:54:03.236Z,101348.13
2022-12-03T19:56:30.406Z,101345.00
2022-12-03T19:58:57.892Z,101343.66
2022-12-03T20:01:26.807Z,101345.38
2022-12-03T20:03:55.794Z,101349.97
2022-12-03T20:06:25.905Z,101341.97
2022-12-03T20:09:00.399Z,101345.44
2022-12-03T20:11:29.851Z,101352.16
2022-12-03T20:13:58.888Z,101348.66
2022-12-03T20:16:26.215Z,101347.44
2022-12-03T20:18:57.936Z,101348.13
2022-12-03T20:21:24.620Z,101340.22
2022-12-03T20:23:51.196Z,101343.47
2022-12-03T20:26:20.927Z,101344.28
2022-12-03T20:28:48.197Z,101346.56
2022-12-03T20:31:17.708Z,101349.44
2022-12-03T20:33:47.048Z,101344.81
2022-12-03T20:36:15.192Z,101348.66
2022-12-03T20:38:42.441Z,101339.31
2022-12-03T20:41:12.760Z,101345.06
2022-12-03T20:43:39.778Z,101331.28
2022-12-03T20:46:25.427Z,101339.91
2022-12-03T20:48:53.956Z,101331.91
2022-12-03T20:51:22.601Z,101328.28
2022-12-03T20:53:49.139Z,101333.19
2022-12-03T20:56:27.875Z,101334.69
2022-12-03T20:58:54.496Z,101325.94
2022-12-03T21:01:23.766Z,101324.25
2022-12-03T21:03:51.996Z,101339.25
2022-12-03T21:06:18.880Z,101332.84
2022-12-03T21:08:46.048Z,101325.47
2022-12-03T21:11:16.681Z,101324.13
2022-12-03T21:13:43.887Z,101327.56
2022-12-03T21:16:17.298Z,101319.56
2022-12-03T21:18:44.373Z,101324.06
2022-12-03T21:21:12.516Z,101323.72
2022-12-03T21:23:39.041Z,101319.97
2022-12-03T21:26:08.018Z,101328.53
2022-12-03T21:28:35.034Z,101329.34
2022-12-03T21:31:03.917Z,101330.41
2022-12-03T21:33:31.323Z,101325.72
2022-12-03T21:35:59.125Z,101328.81
2022-12-03T21:38:27.315Z,101330.09
2022-12-03T21:40:54.350Z,101318.09
2022-12-03T21:43:21.714Z,101331.13
2022-12-03T21:45:49.165Z,101319.34
2022-12-03T21:48:16.829Z,101309.72
2022-12-03T21:50:44.344Z,101320.81
2022-12-03T21:53:11.427Z,101320.38
2022-12-03T21:55:40.406Z,101323.06
2022-12-03T21:58:09.916Z,101317.19
2022-12-03T22:00:36.492Z,101319.84
2022-12-03T22:03:03.088Z,101308.72
2022-12-03T22:05:29.682Z,101311.00
2022-12-03T22:07:56.311Z,101324.72
2022-12-03T22:10:22.853Z,101307.78
2022-12-03T22:12:49.417Z,101307.38
2022-12-03T22:15:19.137Z,101315.63
2022-12-03T22:17:46.217Z,101314.84
2022-12-03T22:20:12.975Z,101318.81
2022-12-03T22:22:39.536Z,101304.56
2022-12-03T22:25:06.195Z,101306.44
2022-12-03T22:27:32.814Z,101308.50
2022-12-03T22:29:59.367Z,101300.56
2022-12-03T22:32:25.917Z,101305.19
2022-12-03T22:34:52.501Z,101300.41
2022-12-03T22:37:19.098Z,101291.69
2022-12-03T22:39:45.632Z,101292.38
2022-12-03T22:42:12.217Z,101295.47
2022-12-03T22:44:38.792Z,101290.84
2022-12-03T22:47:05.601Z,101292.31
2022-12-03T22:49:32.070Z,101287.78
2022-12-03T22:51:58.615Z,101287.44
2022-12-03T22:54:25.100Z,101285.19
2022-12-03T22:56:51.593Z,101288.38
2022-12-03T22:59:18.085Z,101284.97
2022-12-03T23:01:44.553Z,101279.13
2022-12-03T23:04:11.675Z,101271.56
2022-12-03T23:06:38.735Z,101272.81
2022-12-03T23:09:06.729Z,101275.06
2022-12-03T23:11:33.693Z,101268.56
2022-12-03T23:14:00.228Z,101269.41
2022-12-03T23:16:32.586Z,101266.72
2022-12-03T23:19:00.542Z,101261.78
2022-12-03T23:21:30.744Z,101259.91
2022-12-03T23:24:02.431Z,101255.28
2022-12-03T23:26:29.507Z,101262.09
2022-12-03T23:28:56.546Z,101256.31
2022-12-03T23:31:29.624Z,101262.91
2022-12-03T23:33:57.148Z,101259.72
2022-12-03T23:36:25.663Z,101260.13
2022-12-03T23:38:52.461Z,101256.09
2022-12-03T23:41:21.539Z,101259.41
2022-12-03T23:43:48.173Z,101267.63
2022-12-03T23:46:19.126Z,101264.25
2022-12-03T23:48:45.717Z,101261.50
2022-12-03T23:51:17.934Z,101266.41
2022-12-03T23:53:44.820Z,101265.66
2022-12-03T23:56:17.450Z,101261.50
2022-12-03T23:58:44.826Z,101271.56
